Time,TemperatureF,DewpointF,PressureIn,WindDirection,WindDirectionDegrees,WindSpeedMPH,WindSpeedGustMPH,Humidity,HourlyPrecipIn,Conditions,Clouds,dailyrainin,SoftwareType,DateUTC
2013-11-12 00:01:00,46.1,33.3,29.92,SW,225,5.6,5.6,60,-99.99,,,-99.99,tws,2013-11-12 05:01:00,
2013-11-12 00:02:00,46.2,33.3,29.92,SW,225,9.1,9.1,60,-99.99,,,-99.99,tws,2013-11-12 05:02:00,
2013-11-12 00:04:00,46.1,33.2,29.92,WSW,247,10.1,10.1,60,-99.99,,,-99.99,tws,2013-11-12 05:04:00,
2013-11-12 00:05:00,46.3,33.3,29.92,WSW,247,9.4,9.4,60,-99.99,,,-99.99,tws,2013-11-12 05:05:00,
2013-11-12 00:06:00,46.2,33.4,29.92,WSW,247,9.1,9.1,60,-99.99,,,-99.99,tws,2013-11-12 05:06:00,
2013-11-12 00:11:00,46.1,33.5,29.91,West,270,12.3,12.3,61,-99.99,,,-99.99,tws,2013-11-12 05:11:00,
2013-11-12 00:16:00,46.1,33.5,29.92,WSW,247,12.0,12.0,61,-99.99,,,-99.99,tws,2013-11-12 05:16:00,
2013-11-12 00:21:00,46.1,33.6,29.92,West,270,18.2,18.2,61,-99.99,,,-99.99,tws,2013-11-12 05:21:00,
2013-11-12 00:26:00,46.2,33.8,29.92,WSW,247,14.9,14.9,61,-99.99,,,-99.99,tws,2013-11-12 05:26:00,
2013-11-12 00:31:00,46.1,33.7,29.93,West,270,10.8,10.8,61,-99.99,,,-99.99,tws,2013-11-12 05:31:00,
2013-11-12 00:36:00,45.9,33.3,29.92,WNW,292,10.4,10.4,61,-99.99,,,-99.99,tws,2013-11-12 05:36:00,
2013-11-12 00:41:00,46.1,34.0,29.92,WSW,247,17.8,17.8,62,-99.99,,,-99.99,tws,2013-11-12 05:41:00,
2013-11-12 00:46:00,45.9,34.1,29.92,West,270,7.9,7.9,63,-99.99,,,-99.99,tws,2013-11-12 05:46:00,
2013-11-12 00:51:00,45.6,34.0,29.92,West,270,6.9,6.9,63,-99.99,,,-99.99,tws,2013-11-12 05:51:00,
2013-11-12 00:56:00,45.9,34.2,29.91,West,270,7.8,7.8,63,-99.99,,,-99.99,tws,2013-11-12 05:56:00,
2013-11-12 01:01:00,45.7,34.1,29.91,WNW,292,6.7,6.7,63,-99.99,,,-99.99,tws,2013-11-12 06:01:00,
2013-11-12 01:06:00,45.6,34.2,29.91,West,270,7.7,7.7,63,-99.99,,,-99.99,tws,2013-11-12 06:06:00,
2013-11-12 01:11:00,45.4,34.1,29.91,West,270,5.6,5.6,64,-99.99,,,-99.99,tws,2013-11-12 06:11:00,
2013-11-12 01:16:00,45.5,34.2,29.91,West,270,9.6,9.6,64,-99.99,,,-99.99,tws,2013-11-12 06:16:00,
2013-11-12 01:21:00,45.4,34.2,29.91,West,270,7.3,7.3,64,-99.99,,,-99.99,tws,2013-11-12 06:21:00,
2013-11-12 01:26:00,45.1,34.3,29.91,WNW,292,8.1,8.1,65,-99.99,,,-99.99,tws,2013-11-12 06:26:00,
2013-11-12 01:31:00,45.3,34.5,29.91,West,270,6.8,6.8,65,-99.99,,,-99.99,tws,2013-11-12 06:31:00,
2013-11-12 01:36:00,45.4,34.0,29.91,WSW,247,5.7,5.7,64,-99.99,,,-99.99,tws,2013-11-12 06:36:00,
2013-11-12 01:41:00,45.3,34.3,29.91,West,270,9.6,9.6,65,-99.99,,,-99.99,tws,2013-11-12 06:41:00,
2013-11-12 01:46:00,45.1,34.5,29.91,West,270,5.3,5.3,66,-99.99,,,-99.99,tws,2013-11-12 06:46:00,
2013-11-12 01:51:00,45.2,34.2,29.92,NNW,337,1.3,1.3,65,-99.99,,,-99.99,tws,2013-11-12 06:51:00,
2013-11-12 01:56:00,44.8,34.6,29.92,NNW,337,5.1,5.1,66,-99.99,,,-99.99,tws,2013-11-12 06:56:00,
2013-11-12 02:01:00,45.0,34.6,29.93,NW,315,8.7,8.7,66,-99.99,,,-99.99,tws,2013-11-12 07:01:00,
2013-11-12 02:06:00,44.8,35.0,29.93,NNW,337,7.4,7.4,68,-99.99,,,-99.99,tws,2013-11-12 07:06:00,
2013-11-12 02:11:00,40.6,34.9,29.94,NNE,22,18.3,18.3,79,-99.99,,,-99.99,tws,2013-11-12 07:11:00,
2013-11-12 02:16:00,40.8,35.3,29.94,NNE,22,7.2,7.2,80,-99.99,,,-99.99,tws,2013-11-12 07:16:00,
2013-11-12 02:21:00,40.6,35.3,29.95,North,0,6.1,6.1,81,-99.99,,,-99.99,tws,2013-11-12 07:21:00,
2013-11-12 02:26:00,40.7,35.2,29.95,NE,45,7.8,7.8,80,-99.99,,,-99.99,tws,2013-11-12 07:26:00,
2013-11-12 02:31:00,40.1,34.8,29.95,NNE,22,4.1,4.1,81,-99.99,,,-99.99,tws,2013-11-12 07:31:00,
2013-11-12 02:36:00,40.8,35.4,29.95,NE,45,6.6,6.6,81,-99.99,,,-99.99,tws,2013-11-12 07:36:00,
2013-11-12 02:41:00,40.2,34.7,29.95,North,0,7.0,7.0,80,-99.99,,,-99.99,tws,2013-11-12 07:41:00,
2013-11-12 02:46:00,40.1,34.6,29.95,NE,45,2.4,2.4,80,-99.99,,,-99.99,tws,2013-11-12 07:46:00,
2013-11-12 02:51:00,39.8,33.8,29.95,NE,45,9.5,9.5,78,-99.99,,,-99.99,tws,2013-11-12 07:51:00,
2013-11-12 02:56:00,39.8,32.9,29.95,NE,45,11.1,11.1,76,-99.99,,,-99.99,tws,2013-11-12 07:56:00,
2013-11-12 03:01:00,40.0,33.0,29.95,NNW,337,9.9,9.9,75,-99.99,,,-99.99,tws,2013-11-12 08:01:00,
2013-11-12 03:06:00,39.5,32.3,29.95,North,0,11.9,11.9,75,-99.99,,,-99.99,tws,2013-11-12 08:06:00,
2013-11-12 03:11:00,39.6,32.1,29.96,North,0,7.3,7.3,74,-99.99,,,-99.99,tws,2013-11-12 08:11:00,
2013-11-12 03:16:00,39.5,31.9,29.95,North,0,5.8,5.8,74,-99.99,,,-99.99,tws,2013-11-12 08:16:00,
2013-11-12 03:21:00,39.3,31.7,29.95,North,0,9.4,9.4,73,-99.99,,,-99.99,tws,2013-11-12 08:21:00,
2013-11-12 03:26:00,39.3,31.6,29.96,NNE,22,6.1,6.1,73,-99.99,,,-99.99,tws,2013-11-12 08:26:00,
2013-11-12 03:31:00,39.2,31.8,29.97,NNE,22,10.2,10.2,74,-99.99,,,-99.99,tws,2013-11-12 08:31:00,
2013-11-12 03:36:00,38.9,32.0,29.98,North,0,12.7,12.7,75,-99.99,,,-99.99,tws,2013-11-12 08:36:00,
2013-11-12 03:41:00,38.8,32.1,29.98,NNE,22,12.0,12.0,76,-99.99,,,-99.99,tws,2013-11-12 08:41:00,
2013-11-12 03:46:00,38.0,32.2,29.98,NE,45,18.7,18.7,79,-99.99,,,-99.99,tws,2013-11-12 08:46:00,
2013-11-12 03:51:00,37.1,31.7,29.98,North,360,21.3,21.3,80,-99.99,,,-99.99,tws,2013-11-12 08:51:00,
2013-11-12 03:56:00,37.2,32.1,29.99,NNW,337,11.5,11.5,81,-99.99,,,-99.99,tws,2013-11-12 08:56:00,
2013-11-12 04:01:00,36.5,31.4,29.99,NNE,22,13.1,13.1,81,-99.99,,,-99.99,tws,2013-11-12 09:01:00,
2013-11-12 04:06:00,36.7,31.5,29.99,NNE,22,6.0,6.0,81,-99.99,,,-99.99,tws,2013-11-12 09:06:00,
2013-11-12 04:11:00,36.5,31.4,29.99,NNW,337,3.4,3.4,81,-99.99,,,-99.99,tws,2013-11-12 09:11:00,
2013-11-12 04:16:00,36.3,31.2,30.00,NNW,337,7.4,7.4,81,-99.99,,,-99.99,tws,2013-11-12 09:16:00,
2013-11-12 04:22:00,36.9,31.3,30.00,North,360,5.3,5.3,80,-99.99,,,-99.99,tws,2013-11-12 09:22:00,
2013-11-12 04:28:00,36.5,30.2,30.01,NNW,337,8.2,8.2,77,-99.99,,,-99.99,tws,2013-11-12 09:28:00,
2013-11-12 04:33:00,37.0,30.5,30.01,NNW,337,1.7,1.7,77,-99.99,,,-99.99,tws,2013-11-12 09:33:00,
2013-11-12 04:38:00,36.4,28.0,30.01,NNW,337,20.9,20.9,71,-99.99,,,-99.99,tws,2013-11-12 09:38:00,
2013-11-12 04:43:00,36.7,27.7,30.02,NNW,337,7.3,7.3,69,-99.99,,,-99.99,tws,2013-11-12 09:43:00,
2013-11-12 04:48:00,36.6,27.9,30.02,NE,45,12.1,12.1,70,-99.99,,,-99.99,tws,2013-11-12 09:48:00,
2013-11-12 04:53:00,36.4,28.0,30.02,NNE,22,15.5,15.5,71,-99.99,,,-99.99,tws,2013-11-12 09:53:00,
2013-11-12 04:58:00,36.1,27.3,30.02,ENE,67,11.4,11.4,70,-99.99,,,-99.99,tws,2013-11-12 09:58:00,
2013-11-12 05:03:00,36.0,26.9,30.02,North,360,11.3,11.3,69,-99.99,,,-99.99,tws,2013-11-12 10:03:00,
2013-11-12 05:08:00,35.5,26.4,30.02,North,360,18.7,18.7,69,-99.99,,,-99.99,tws,2013-11-12 10:08:00,
2013-11-12 05:13:00,35.5,26.2,30.02,North,360,17.7,17.7,68,-99.99,,,-99.99,tws,2013-11-12 10:13:00,
2013-11-12 05:18:00,35.4,25.7,30.03,North,360,16.0,16.0,67,-99.99,,,-99.99,tws,2013-11-12 10:18:00,
2013-11-12 05:23:00,34.6,25.4,30.03,NNE,22,24.4,24.4,68,-99.99,,,-99.99,tws,2013-11-12 10:23:00,
2013-11-12 05:28:00,34.5,26.0,30.03,North,360,19.8,19.8,70,-99.99,,,-99.99,tws,2013-11-12 10:28:00,
2013-11-12 05:33:00,33.8,26.1,30.03,NNW,337,20.3,20.3,73,-99.99,,,-99.99,tws,2013-11-12 10:33:00,
2013-11-12 05:38:00,33.5,25.4,30.04,NNW,337,24.8,24.8,71,-99.99,,,-99.99,tws,2013-11-12 10:38:00,
2013-11-12 05:43:00,33.4,25.2,30.04,NNE,22,18.2,18.2,71,-99.99,,,-99.99,tws,2013-11-12 10:43:00,
2013-11-12 05:48:00,33.5,25.4,30.05,North,360,10.4,10.4,72,-99.99,,,-99.99,tws,2013-11-12 10:48:00,
2013-11-12 05:53:00,33.4,24.9,30.05,NNE,22,18.1,18.1,70,-99.99,,,-99.99,tws,2013-11-12 10:53:00,
2013-11-12 05:58:00,33.4,25.1,30.05,North,0,10.4,10.4,71,-99.99,,,-99.99,tws,2013-11-12 10:58:00,
2013-11-12 06:03:00,33.7,24.6,30.05,NW,315,5.6,5.6,68,-99.99,,,-99.99,tws,2013-11-12 11:03:00,
2013-11-12 06:08:00,33.4,23.5,30.06,NW,315,11.9,11.9,66,-99.99,,,-99.99,tws,2013-11-12 11:08:00,
2013-11-12 06:13:00,33.5,23.3,30.06,North,360,11.2,11.2,66,-99.99,,,-99.99,tws,2013-11-12 11:13:00,
2013-11-12 06:18:00,33.5,22.5,30.06,NNE,22,15.7,15.7,63,-99.99,,,-99.99,tws,2013-11-12 11:18:00,
2013-11-12 06:23:00,33.3,22.2,30.07,NNW,337,19.1,19.1,63,-99.99,,,-99.99,tws,2013-11-12 11:23:00,
2013-11-12 06:28:00,33.3,22.4,30.07,North,360,14.9,14.9,64,-99.99,,,-99.99,tws,2013-11-12 11:28:00,
2013-11-12 06:33:00,32.9,21.2,30.07,NNW,337,25.1,25.1,61,-99.99,,,-99.99,tws,2013-11-12 11:33:00,
2013-11-12 06:38:00,32.8,21.2,30.07,North,0,20.9,20.9,62,-99.99,,,-99.99,tws,2013-11-12 11:38:00,
2013-11-12 06:43:00,32.8,21.3,30.07,North,0,23.9,23.9,62,-99.99,,,-99.99,tws,2013-11-12 11:43:00,
2013-11-12 06:48:00,32.8,21.8,30.07,NNW,337,16.0,16.0,63,-99.99,,,-99.99,tws,2013-11-12 11:48:00,
2013-11-12 06:53:00,32.8,21.9,30.07,NNW,337,18.0,18.0,63,-99.99,,,-99.99,tws,2013-11-12 11:53:00,
2013-11-12 06:58:00,32.7,22.1,30.08,North,360,12.1,12.1,64,-99.99,,,-99.99,tws,2013-11-12 11:58:00,
2013-11-12 07:03:00,32.8,22.1,30.08,North,0,17.1,17.1,64,-99.99,,,-99.99,tws,2013-11-12 12:03:00,
2013-11-12 07:08:00,32.8,22.5,30.09,NNW,337,14.0,14.0,65,-99.99,,,-99.99,tws,2013-11-12 12:08:00,
2013-11-12 07:13:00,32.8,22.5,30.09,North,0,10.5,10.5,65,-99.99,,,-99.99,tws,2013-11-12 12:13:00,
2013-11-12 07:18:00,32.7,22.3,30.09,North,360,16.1,16.1,65,-99.99,,,-99.99,tws,2013-11-12 12:18:00,
2013-11-12 07:23:00,32.8,22.5,30.09,NNE,22,12.6,12.6,65,-99.99,,,-99.99,tws,2013-11-12 12:23:00,
2013-11-12 07:28:00,32.6,22.7,30.09,NNW,337,8.8,8.8,66,-99.99,,,-99.99,tws,2013-11-12 12:28:00,
2013-11-12 07:33:00,32.6,22.2,30.09,North,360,17.2,17.2,65,-99.99,,,-99.99,tws,2013-11-12 12:33:00,
2013-11-12 07:38:00,32.7,22.7,30.09,NNW,337,13.5,13.5,66,-99.99,,,-99.99,tws,2013-11-12 12:38:00,
2013-11-12 07:43:00,32.5,22.8,30.09,North,360,13.5,13.5,67,-99.99,,,-99.99,tws,2013-11-12 12:43:00,
2013-11-12 07:48:00,32.8,23.4,30.10,North,360,7.5,7.5,68,-99.99,,,-99.99,tws,2013-11-12 12:48:00,
2013-11-12 07:53:00,32.4,22.9,30.11,NNW,337,12.5,12.5,67,-99.99,,,-99.99,tws,2013-11-12 12:53:00,
2013-11-12 07:58:00,32.6,23.2,30.11,NNW,337,11.8,11.8,67,-99.99,,,-99.99,tws,2013-11-12 12:58:00,
2013-11-12 08:03:00,32.4,23.0,30.11,NE,45,10.1,10.1,68,-99.99,,,-99.99,tws,2013-11-12 13:03:00,
2013-11-12 08:08:00,32.5,22.7,30.11,NW,315,10.3,10.3,66,-99.99,,,-99.99,tws,2013-11-12 13:08:00,
2013-11-12 08:13:00,32.7,22.6,30.11,North,0,11.2,11.2,66,-99.99,,,-99.99,tws,2013-11-12 13:13:00,
2013-11-12 08:18:00,32.0,22.2,30.11,NW,315,14.1,14.1,66,-99.99,,,-99.99,tws,2013-11-12 13:18:00,
2013-11-12 08:23:00,32.7,23.6,30.11,North,360,7.9,7.9,69,-99.99,,,-99.99,tws,2013-11-12 13:23:00,
2013-11-12 08:28:00,32.2,22.6,30.12,North,0,3.5,3.5,67,-99.99,,,-99.99,tws,2013-11-12 13:28:00,
2013-11-12 08:33:00,32.8,23.6,30.12,NNW,337,9.3,9.3,68,-99.99,,,-99.99,tws,2013-11-12 13:33:00,
2013-11-12 08:38:00,32.0,22.5,30.12,NNW,337,10.6,10.6,67,-99.99,,,-99.99,tws,2013-11-12 13:38:00,
2013-11-12 08:43:00,32.1,22.2,30.11,North,360,15.5,15.5,66,-99.99,,,-99.99,tws,2013-11-12 13:43:00,
2013-11-12 08:48:00,32.8,23.5,30.12,NNE,22,7.1,7.1,68,-99.99,,,-99.99,tws,2013-11-12 13:48:00,
2013-11-12 08:53:00,32.7,23.1,30.12,NNW,337,0.4,0.4,67,-99.99,,,-99.99,tws,2013-11-12 13:53:00,
2013-11-12 08:58:00,33.4,23.6,30.12,NNW,337,6.9,6.9,67,-99.99,,,-99.99,tws,2013-11-12 13:58:00,
2013-11-12 09:03:00,32.9,22.1,30.12,NNW,337,7.5,7.5,64,-99.99,,,-99.99,tws,2013-11-12 14:03:00,
2013-11-12 09:08:00,33.3,22.3,30.12,North,360,10.5,10.5,63,-99.99,,,-99.99,tws,2013-11-12 14:08:00,
2013-11-12 09:13:00,33.4,22.4,30.12,North,0,11.9,11.9,63,-99.99,,,-99.99,tws,2013-11-12 14:13:00,
2013-11-12 09:18:00,33.3,22.4,30.12,WNW,292,6.7,6.7,63,-99.99,,,-99.99,tws,2013-11-12 14:18:00,
2013-11-12 09:23:00,34.6,23.5,30.13,NE,45,5.7,5.7,63,-99.99,,,-99.99,tws,2013-11-12 14:23:00,
2013-11-12 09:28:00,33.3,21.2,30.14,NNW,337,9.4,9.4,60,-99.99,,,-99.99,tws,2013-11-12 14:28:00,
2013-11-12 09:33:00,33.2,20.8,30.14,North,0,12.7,12.7,60,-99.99,,,-99.99,tws,2013-11-12 14:33:00,
2013-11-12 09:38:00,32.9,20.7,30.14,North,360,11.7,11.7,60,-99.99,,,-99.99,tws,2013-11-12 14:38:00,
2013-11-12 09:43:00,33.2,21.0,30.14,NNE,22,19.7,19.7,60,-99.99,,,-99.99,tws,2013-11-12 14:43:00,
2013-11-12 09:48:00,32.6,20.8,30.13,North,360,13.9,13.9,61,-99.99,,,-99.99,tws,2013-11-12 14:48:00,
2013-11-12 09:53:00,32.5,20.5,30.14,North,0,12.4,12.4,61,-99.99,,,-99.99,tws,2013-11-12 14:53:00,
2013-11-12 09:58:00,32.6,20.9,30.14,North,0,12.2,12.2,61,-99.99,,,-99.99,tws,2013-11-12 14:58:00,
2013-11-12 10:03:00,32.4,20.1,30.14,North,360,9.2,9.2,60,-99.99,,,-99.99,tws,2013-11-12 15:03:00,
2013-11-12 10:08:00,32.8,20.1,30.14,NNW,337,7.6,7.6,59,-99.99,,,-99.99,tws,2013-11-12 15:08:00,
2013-11-12 10:13:00,32.6,19.9,30.15,NNW,337,8.8,8.8,59,-99.99,,,-99.99,tws,2013-11-12 15:13:00,
2013-11-12 10:18:00,32.6,19.7,30.15,NW,315,15.2,15.2,58,-99.99,,,-99.99,tws,2013-11-12 15:18:00,
2013-11-12 10:23:00,32.9,20.1,30.15,NW,315,7.9,7.9,58,-99.99,,,-99.99,tws,2013-11-12 15:23:00,
2013-11-12 10:28:00,33.0,20.0,30.15,NNW,337,13.4,13.4,58,-99.99,,,-99.99,tws,2013-11-12 15:28:00,
2013-11-12 10:33:00,32.9,19.5,30.15,NNW,337,16.3,16.3,57,-99.99,,,-99.99,tws,2013-11-12 15:33:00,
2013-11-12 10:38:00,32.6,19.3,30.15,NNW,337,12.4,12.4,57,-99.99,,,-99.99,tws,2013-11-12 15:38:00,
2013-11-12 10:43:00,32.8,19.5,30.15,NNE,22,10.9,10.9,57,-99.99,,,-99.99,tws,2013-11-12 15:43:00,
2013-11-12 10:48:00,32.9,19.1,30.15,NNW,337,15.3,15.3,56,-99.99,,,-99.99,tws,2013-11-12 15:48:00,
2013-11-12 10:53:00,32.9,18.9,30.14,North,360,21.1,21.1,56,-99.99,,,-99.99,tws,2013-11-12 15:53:00,
2013-11-12 10:58:00,32.8,19.3,30.14,NNE,22,11.6,11.6,57,-99.99,,,-99.99,tws,2013-11-12 15:58:00,
2013-11-12 11:03:00,33.0,19.5,30.15,NE,45,17.6,17.6,57,-99.99,,,-99.99,tws,2013-11-12 16:03:00,
2013-11-12 11:08:00,32.1,18.2,30.15,NNE,22,20.6,20.6,56,-99.99,,,-99.99,tws,2013-11-12 16:08:00,
2013-11-12 11:13:00,34.0,20.5,30.15,North,360,10.0,10.0,57,-99.99,,,-99.99,tws,2013-11-12 16:13:00,
2013-11-12 11:18:00,33.2,19.5,30.14,NNW,337,17.2,17.2,56,-99.99,,,-99.99,tws,2013-11-12 16:18:00,
2013-11-12 11:23:00,32.9,19.2,30.15,NNW,337,9.1,9.1,56,-99.99,,,-99.99,tws,2013-11-12 16:23:00,
2013-11-12 11:28:00,32.8,19.3,30.15,North,360,12.1,12.1,57,-99.99,,,-99.99,tws,2013-11-12 16:28:00,
2013-11-12 11:33:00,34.6,21.2,30.16,NW,315,11.6,11.6,57,-99.99,,,-99.99,tws,2013-11-12 16:33:00,
2013-11-12 11:38:00,33.4,19.8,30.16,NNE,22,16.3,16.3,57,-99.99,,,-99.99,tws,2013-11-12 16:38:00,
2013-11-12 11:43:00,33.5,20.1,30.16,NE,45,16.7,16.7,57,-99.99,,,-99.99,tws,2013-11-12 16:43:00,
2013-11-12 11:48:00,33.5,20.7,30.16,NW,315,5.8,5.8,59,-99.99,,,-99.99,tws,2013-11-12 16:48:00,
2013-11-12 11:53:00,33.0,19.8,30.16,North,360,15.1,15.1,57,-99.99,,,-99.99,tws,2013-11-12 16:53:00,
2013-11-12 11:58:00,33.3,20.4,30.16,NNW,337,15.5,15.5,58,-99.99,,,-99.99,tws,2013-11-12 16:58:00,
2013-11-12 12:03:00,32.1,19.4,30.16,North,360,16.2,16.2,59,-99.99,,,-99.99,tws,2013-11-12 17:03:00,
2013-11-12 12:08:00,33.0,20.6,30.16,North,360,11.3,11.3,59,-99.99,,,-99.99,tws,2013-11-12 17:08:00,
2013-11-12 12:13:00,32.8,20.4,30.16,NNW,337,13.5,13.5,59,-99.99,,,-99.99,tws,2013-11-12 17:13:00,
2013-11-12 12:18:00,32.9,20.9,30.16,NE,45,14.9,14.9,60,-99.99,,,-99.99,tws,2013-11-12 17:18:00,
2013-11-12 12:23:00,32.4,19.7,30.15,North,360,17.7,17.7,59,-99.99,,,-99.99,tws,2013-11-12 17:23:00,
2013-11-12 12:28:00,33.2,20.3,30.15,NNE,22,15.6,15.6,58,-99.99,,,-99.99,tws,2013-11-12 17:28:00,
2013-11-12 12:33:00,32.7,19.5,30.15,NNW,337,20.4,20.4,58,-99.99,,,-99.99,tws,2013-11-12 17:33:00,
2013-11-12 12:38:00,33.5,20.5,30.16,NNE,22,17.9,17.9,58,-99.99,,,-99.99,tws,2013-11-12 17:38:00,
2013-11-12 12:43:00,33.9,21.7,30.16,NNE,22,8.9,8.9,60,-99.99,,,-99.99,tws,2013-11-12 17:43:00,
2013-11-12 12:48:00,31.8,20.3,30.16,NE,45,18.8,18.8,62,-99.99,,,-99.99,tws,2013-11-12 17:48:00,
2013-11-12 12:53:00,32.9,21.3,30.15,NNE,22,13.7,13.7,61,-99.99,,,-99.99,tws,2013-11-12 17:53:00,
2013-11-12 12:58:00,32.9,21.4,30.15,NE,45,10.4,10.4,62,-99.99,,,-99.99,tws,2013-11-12 17:58:00,
2013-11-12 13:03:00,34.8,22.7,30.15,ENE,67,12.8,12.8,60,-99.99,,,-99.99,tws,2013-11-12 18:03:00,
2013-11-12 13:08:00,35.4,22.7,30.15,NE,45,10.1,10.1,59,-99.99,,,-99.99,tws,2013-11-12 18:08:00,
2013-11-12 13:13:00,34.4,20.6,30.15,NNE,22,14.5,14.5,56,-99.99,,,-99.99,tws,2013-11-12 18:13:00,
2013-11-12 13:18:00,35.5,20.8,30.15,North,0,23.8,23.8,54,-99.99,,,-99.99,tws,2013-11-12 18:18:00,
2013-11-12 13:23:00,35.4,20.8,30.15,North,360,25.2,25.2,54,-99.99,,,-99.99,tws,2013-11-12 18:23:00,
2013-11-12 13:28:00,36.2,20.5,30.15,NNE,22,22.7,22.7,52,-99.99,,,-99.99,tws,2013-11-12 18:28:00,
2013-11-12 13:33:00,37.0,21.1,30.16,North,360,20.3,20.3,52,-99.99,,,-99.99,tws,2013-11-12 18:33:00,
2013-11-12 13:38:00,36.6,21.0,30.16,North,0,17.6,17.6,52,-99.99,,,-99.99,tws,2013-11-12 18:38:00,
2013-11-12 13:43:00,35.7,20.2,30.15,NE,45,23.7,23.7,52,-99.99,,,-99.99,tws,2013-11-12 18:43:00,
2013-11-12 13:48:00,36.2,20.7,30.16,NNE,22,16.9,16.9,53,-99.99,,,-99.99,tws,2013-11-12 18:48:00,
2013-11-12 13:53:00,37.5,21.3,30.16,NNE,22,14.3,14.3,51,-99.99,,,-99.99,tws,2013-11-12 18:53:00,
2013-11-12 13:58:00,34.0,19.1,30.16,North,0,23.0,23.0,54,-99.99,,,-99.99,tws,2013-11-12 18:58:00,
2013-11-12 14:03:00,33.4,19.2,30.16,NNW,337,20.6,20.6,55,-99.99,,,-99.99,tws,2013-11-12 19:03:00,
2013-11-12 14:08:00,33.0,19.2,30.16,North,0,23.7,23.7,56,-99.99,,,-99.99,tws,2013-11-12 19:08:00,
2013-11-12 14:13:00,33.5,19.2,30.16,North,360,24.7,24.7,55,-99.99,,,-99.99,tws,2013-11-12 19:13:00,
2013-11-12 14:18:00,35.1,20.8,30.16,North,0,10.5,10.5,55,-99.99,,,-99.99,tws,2013-11-12 19:18:00,
2013-11-12 14:23:00,36.4,20.9,30.16,North,0,18.3,18.3,53,-99.99,,,-99.99,tws,2013-11-12 19:23:00,
2013-11-12 14:28:00,34.5,20.2,30.16,North,360,18.5,18.5,55,-99.99,,,-99.99,tws,2013-11-12 19:28:00,
2013-11-12 14:33:00,35.5,20.8,30.16,North,0,21.6,21.6,54,-99.99,,,-99.99,tws,2013-11-12 19:33:00,
2013-11-12 14:38:00,36.7,21.6,30.16,NW,315,24.2,24.2,54,-99.99,,,-99.99,tws,2013-11-12 19:38:00,
2013-11-12 14:43:00,36.4,21.2,30.16,North,360,19.2,19.2,53,-99.99,,,-99.99,tws,2013-11-12 19:43:00,
2013-11-12 14:48:00,37.8,21.9,30.16,WNW,292,15.6,15.6,52,-99.99,,,-99.99,tws,2013-11-12 19:48:00,
2013-11-12 14:53:00,37.9,22.2,30.16,North,0,19.5,19.5,52,-99.99,,,-99.99,tws,2013-11-12 19:53:00,
2013-11-12 14:58:00,37.4,21.7,30.16,NNW,337,18.7,18.7,52,-99.99,,,-99.99,tws,2013-11-12 19:58:00,
2013-11-12 15:03:00,37.0,21.3,30.17,NNW,337,11.2,11.2,52,-99.99,,,-99.99,tws,2013-11-12 20:03:00,
2013-11-12 15:08:00,36.1,20.5,30.17,North,360,23.3,23.3,52,-99.99,,,-99.99,tws,2013-11-12 20:08:00,
2013-11-12 15:13:00,37.2,21.3,30.18,North,360,18.0,18.0,52,-99.99,,,-99.99,tws,2013-11-12 20:13:00,
2013-11-12 15:18:00,40.2,23.4,30.18,ENE,67,12.6,12.6,50,-99.99,,,-99.99,tws,2013-11-12 20:18:00,
2013-11-12 15:23:00,36.7,20.8,30.18,North,360,21.7,21.7,52,-99.99,,,-99.99,tws,2013-11-12 20:23:00,
2013-11-12 15:28:00,38.4,22.2,30.18,NNW,337,13.2,13.2,51,-99.99,,,-99.99,tws,2013-11-12 20:28:00,
2013-11-12 15:33:00,38.1,21.9,30.19,WNW,292,10.7,10.7,51,-99.99,,,-99.99,tws,2013-11-12 20:33:00,
2013-11-12 15:38:00,35.1,20.0,30.19,NE,45,22.4,22.4,53,-99.99,,,-99.99,tws,2013-11-12 20:38:00,
2013-11-12 15:43:00,36.0,20.1,30.20,NNW,337,18.5,18.5,52,-99.99,,,-99.99,tws,2013-11-12 20:43:00,
2013-11-12 15:48:00,36.0,21.0,30.20,North,360,13.6,13.6,54,-99.99,,,-99.99,tws,2013-11-12 20:48:00,
2013-11-12 15:53:00,38.7,22.4,30.20,NNW,337,11.6,11.6,51,-99.99,,,-99.99,tws,2013-11-12 20:53:00,
2013-11-12 15:58:00,37.8,22.2,30.20,NE,45,9.3,9.3,53,-99.99,,,-99.99,tws,2013-11-12 20:58:00,
2013-11-12 16:03:00,34.3,20.1,30.20,NW,315,16.9,16.9,55,-99.99,,,-99.99,tws,2013-11-12 21:03:00,
2013-11-12 16:08:00,34.7,20.9,30.21,North,360,11.0,11.0,56,-99.99,,,-99.99,tws,2013-11-12 21:08:00,
2013-11-12 16:13:00,34.2,20.7,30.21,NNW,337,10.9,10.9,57,-99.99,,,-99.99,tws,2013-11-12 21:13:00,
2013-11-12 16:18:00,33.7,19.9,30.22,NNW,337,9.8,9.8,56,-99.99,,,-99.99,tws,2013-11-12 21:18:00,
2013-11-12 16:23:00,33.4,19.7,30.22,NNE,22,8.5,8.5,56,-99.99,,,-99.99,tws,2013-11-12 21:23:00,
2013-11-12 16:28:00,31.9,19.1,30.22,WNW,292,14.2,14.2,58,-99.99,,,-99.99,tws,2013-11-12 21:28:00,
2013-11-12 16:33:00,31.7,19.5,30.22,NNE,22,8.5,8.5,60,-99.99,,,-99.99,tws,2013-11-12 21:33:00,
2013-11-12 16:38:00,31.2,19.2,30.22,North,360,7.4,7.4,60,-99.99,,,-99.99,tws,2013-11-12 21:38:00,
2013-11-12 16:43:00,31.1,19.0,30.23,NNW,337,6.5,6.5,60,-99.99,,,-99.99,tws,2013-11-12 21:43:00,
2013-11-12 16:48:00,30.5,18.7,30.23,North,0,7.6,7.6,61,-99.99,,,-99.99,tws,2013-11-12 21:48:00,
2013-11-12 16:53:00,30.6,18.8,30.23,North,360,9.1,9.1,61,-99.99,,,-99.99,tws,2013-11-12 21:53:00,
2013-11-12 16:58:00,30.5,19.0,30.23,NE,45,5.3,5.3,62,-99.99,,,-99.99,tws,2013-11-12 21:58:00,
2013-11-12 17:03:00,30.6,19.2,30.23,NE,45,6.9,6.9,62,-99.99,,,-99.99,tws,2013-11-12 22:03:00,
2013-11-12 17:08:00,30.5,20.4,30.23,NE,45,3.0,3.0,66,-99.99,,,-99.99,tws,2013-11-12 22:08:00,
2013-11-12 17:13:00,30.6,19.5,30.23,NE,45,0.2,0.2,63,-99.99,,,-99.99,tws,2013-11-12 22:13:00,
2013-11-12 17:18:00,30.0,18.8,30.24,NE,45,7.4,7.4,62,-99.99,,,-99.99,tws,2013-11-12 22:18:00,
2013-11-12 17:23:00,29.7,18.7,30.23,North,0,1.4,1.4,63,-99.99,,,-99.99,tws,2013-11-12 22:23:00,
2013-11-12 17:28:00,30.0,18.8,30.24,NE,45,0.0,0.0,62,-99.99,,,-99.99,tws,2013-11-12 22:28:00,
2013-11-12 17:33:00,29.7,18.4,30.24,ENE,67,0.0,0.0,62,-99.99,,,-99.99,tws,2013-11-12 22:33:00,
2013-11-12 17:38:00,29.8,18.8,30.24,NE,45,0.3,0.3,63,-99.99,,,-99.99,tws,2013-11-12 22:38:00,
2013-11-12 17:43:00,29.4,18.3,30.23,East,90,0.0,0.0,62,-99.99,,,-99.99,tws,2013-11-12 22:43:00,
2013-11-12 17:48:00,29.2,18.4,30.24,East,90,0.0,0.0,63,-99.99,,,-99.99,tws,2013-11-12 22:48:00,
2013-11-12 17:53:00,29.1,18.5,30.24,ENE,67,0.3,0.3,64,-99.99,,,-99.99,tws,2013-11-12 22:53:00,
2013-11-12 17:58:00,29.4,18.2,30.24,ESE,112,0.0,0.0,62,-99.99,,,-99.99,tws,2013-11-12 22:58:00,
2013-11-12 18:03:00,29.2,19.1,30.25,SE,135,0.0,0.0,65,-99.99,,,-99.99,tws,2013-11-12 23:03:00,
2013-11-12 18:08:00,29.1,19.0,30.24,SE,135,0.0,0.0,65,-99.99,,,-99.99,tws,2013-11-12 23:08:00,
2013-11-12 18:13:00,29.0,19.2,30.25,ESE,112,0.0,0.0,66,-99.99,,,-99.99,tws,2013-11-12 23:13:00,
2013-11-12 18:18:00,29.0,18.8,30.25,SE,135,4.1,4.1,65,-99.99,,,-99.99,tws,2013-11-12 23:18:00,
2013-11-12 18:23:00,28.8,18.6,30.25,SE,135,1.2,1.2,65,-99.99,,,-99.99,tws,2013-11-12 23:23:00,
2013-11-12 18:28:00,29.0,18.9,30.25,ESE,112,3.3,3.3,65,-99.99,,,-99.99,tws,2013-11-12 23:28:00,
2013-11-12 18:33:00,29.3,18.4,30.25,East,90,1.5,1.5,63,-99.99,,,-99.99,tws,2013-11-12 23:33:00,
2013-11-12 18:38:00,29.5,18.4,30.25,NE,45,0.0,0.0,62,-99.99,,,-99.99,tws,2013-11-12 23:38:00,
2013-11-12 18:43:00,28.8,17.9,30.25,ENE,67,5.4,5.4,63,-99.99,,,-99.99,tws,2013-11-12 23:43:00,
2013-11-12 18:48:00,28.6,18.3,30.25,NE,45,0.1,0.1,64,-99.99,,,-99.99,tws,2013-11-12 23:48:00,
2013-11-12 18:53:00,28.5,18.5,30.25,NNE,22,4.8,4.8,65,-99.99,,,-99.99,tws,2013-11-12 23:53:00,
2013-11-12 18:58:00,28.5,18.4,30.25,NNE,22,6.2,6.2,65,-99.99,,,-99.99,tws,2013-11-12 23:58:00,
2013-11-12 19:03:00,28.3,18.9,30.25,NE,45,0.7,0.7,67,-99.99,,,-99.99,tws,2013-11-13 00:03:00,
2013-11-12 19:08:00,28.3,18.8,30.25,North,360,0.2,0.2,67,-99.99,,,-99.99,tws,2013-11-13 00:08:00,
2013-11-12 19:13:00,27.6,18.7,30.25,NNW,337,3.6,3.6,68,-99.99,,,-99.99,tws,2013-11-13 00:13:00,
2013-11-12 19:18:00,27.5,18.6,30.25,North,360,3.7,3.7,68,-99.99,,,-99.99,tws,2013-11-13 00:18:00,
2013-11-12 19:23:00,28.0,19.0,30.25,North,360,0.0,0.0,68,-99.99,,,-99.99,tws,2013-11-13 00:23:00,
2013-11-12 19:28:00,27.7,19.5,30.25,North,0,0.0,0.0,70,-99.99,,,-99.99,tws,2013-11-13 00:28:00,
2013-11-12 19:33:00,26.3,18.0,30.25,NNW,337,1.4,1.4,70,-99.99,,,-99.99,tws,2013-11-13 00:33:00,
2013-11-12 19:38:00,28.1,21.1,30.25,North,360,0.0,0.0,74,-99.99,,,-99.99,tws,2013-11-13 00:38:00,
2013-11-12 19:43:00,28.1,21.1,30.25,North,0,0.0,0.0,74,-99.99,,,-99.99,tws,2013-11-13 00:43:00,
2013-11-12 19:48:00,28.3,20.4,30.26,WNW,292,0.0,0.0,71,-99.99,,,-99.99,tws,2013-11-13 00:48:00,
2013-11-12 19:53:00,27.7,20.8,30.26,WNW,292,0.0,0.0,74,-99.99,,,-99.99,tws,2013-11-13 00:53:00,
2013-11-12 19:58:00,27.4,19.3,30.26,SSE,157,0.0,0.0,71,-99.99,,,-99.99,tws,2013-11-13 00:58:00,
2013-11-12 20:03:00,28.0,19.9,30.26,SSE,157,0.0,0.0,71,-99.99,,,-99.99,tws,2013-11-13 01:03:00,
2013-11-12 20:08:00,28.1,20.2,30.26,SE,135,0.0,0.0,71,-99.99,,,-99.99,tws,2013-11-13 01:08:00,
2013-11-12 20:13:00,28.4,20.4,30.26,NE,45,0.0,0.0,71,-99.99,,,-99.99,tws,2013-11-13 01:13:00,
2013-11-12 20:18:00,27.9,20.0,30.26,East,90,0.0,0.0,72,-99.99,,,-99.99,tws,2013-11-13 01:18:00,
2013-11-12 20:23:00,28.4,19.4,30.27,NW,315,4.6,4.6,68,-99.99,,,-99.99,tws,2013-11-13 01:23:00,
2013-11-12 20:28:00,28.9,19.9,30.27,North,360,0.1,0.1,69,-99.99,,,-99.99,tws,2013-11-13 01:28:00,
2013-11-12 20:33:00,28.1,19.8,30.27,NW,315,3.2,3.2,70,-99.99,,,-99.99,tws,2013-11-13 01:33:00,
2013-11-12 20:38:00,27.6,19.6,30.27,NNW,337,8.0,8.0,71,-99.99,,,-99.99,tws,2013-11-13 01:38:00,
2013-11-12 20:43:00,28.3,19.7,30.27,North,360,5.6,5.6,69,-99.99,,,-99.99,tws,2013-11-13 01:43:00,
2013-11-12 20:48:00,28.6,20.1,30.27,North,360,5.9,5.9,70,-99.99,,,-99.99,tws,2013-11-13 01:48:00,
2013-11-12 20:53:00,28.6,20.0,30.27,NNW,337,7.9,7.9,69,-99.99,,,-99.99,tws,2013-11-13 01:53:00,
2013-11-12 20:58:00,29.0,20.1,30.27,North,0,10.9,10.9,69,-99.99,,,-99.99,tws,2013-11-13 01:58:00,
2013-11-12 21:03:00,28.6,19.8,30.27,NNW,337,11.4,11.4,69,-99.99,,,-99.99,tws,2013-11-13 02:03:00,
2013-11-12 21:08:00,28.8,19.8,30.27,NNE,22,12.3,12.3,68,-99.99,,,-99.99,tws,2013-11-13 02:08:00,
2013-11-12 21:13:00,28.9,19.8,30.27,WNW,292,13.9,13.9,68,-99.99,,,-99.99,tws,2013-11-13 02:13:00,
2013-11-12 21:18:00,28.9,19.6,30.27,NNW,337,10.2,10.2,67,-99.99,,,-99.99,tws,2013-11-13 02:18:00,
2013-11-12 21:23:00,28.5,19.7,30.27,NW,315,6.4,6.4,69,-99.99,,,-99.99,tws,2013-11-13 02:23:00,
2013-11-12 21:28:00,28.6,19.1,30.27,West,270,14.1,14.1,67,-99.99,,,-99.99,tws,2013-11-13 02:28:00,
2013-11-12 21:33:00,28.6,19.1,30.27,NNW,337,11.4,11.4,67,-99.99,,,-99.99,tws,2013-11-13 02:33:00,
2013-11-12 21:38:00,28.3,19.1,30.27,NW,315,6.9,6.9,68,-99.99,,,-99.99,tws,2013-11-13 02:38:00,
2013-11-12 21:43:00,28.4,19.0,30.27,NNW,337,5.6,5.6,67,-99.99,,,-99.99,tws,2013-11-13 02:43:00,
2013-11-12 21:48:00,28.1,19.1,30.27,NNW,337,5.1,5.1,68,-99.99,,,-99.99,tws,2013-11-13 02:48:00,
2013-11-12 21:53:00,27.7,18.8,30.27,NNW,337,4.3,4.3,68,-99.99,,,-99.99,tws,2013-11-13 02:53:00,
2013-11-12 21:58:00,27.6,18.5,30.27,North,360,4.6,4.6,68,-99.99,,,-99.99,tws,2013-11-13 02:58:00,
2013-11-12 22:03:00,27.5,18.9,30.27,North,360,2.0,2.0,69,-99.99,,,-99.99,tws,2013-11-13 03:03:00,
2013-11-12 22:08:00,26.5,18.4,30.27,NW,315,4.6,4.6,71,-99.99,,,-99.99,tws,2013-11-13 03:08:00,
2013-11-12 22:13:00,27.4,18.2,30.26,NNW,337,5.2,5.2,68,-99.99,,,-99.99,tws,2013-11-13 03:13:00,
2013-11-12 22:18:00,27.1,18.3,30.27,NNW,337,4.1,4.1,69,-99.99,,,-99.99,tws,2013-11-13 03:18:00,
2013-11-12 22:23:00,27.1,17.9,30.26,WNW,292,1.3,1.3,68,-99.99,,,-99.99,tws,2013-11-13 03:23:00,
2013-11-12 22:28:00,26.7,18.0,30.26,NW,315,1.9,1.9,69,-99.99,,,-99.99,tws,2013-11-13 03:28:00,
2013-11-12 22:33:00,27.3,17.3,30.27,NW,315,3.2,3.2,65,-99.99,,,-99.99,tws,2013-11-13 03:33:00,
2013-11-12 22:38:00,27.2,17.1,30.26,NW,315,2.8,2.8,65,-99.99,,,-99.99,tws,2013-11-13 03:38:00,
2013-11-12 22:43:00,26.8,16.9,30.26,NNW,337,2.6,2.6,65,-99.99,,,-99.99,tws,2013-11-13 03:43:00,
2013-11-12 22:48:00,27.0,16.7,30.26,North,0,4.9,4.9,64,-99.99,,,-99.99,tws,2013-11-13 03:48:00,
2013-11-12 22:53:00,27.1,17.2,30.26,North,360,1.8,1.8,66,-99.99,,,-99.99,tws,2013-11-13 03:53:00,
2013-11-12 22:58:00,26.3,16.8,30.26,North,0,4.5,4.5,67,-99.99,,,-99.99,tws,2013-11-13 03:58:00,
2013-11-12 23:03:00,26.4,17.5,30.26,North,360,1.8,1.8,68,-99.99,,,-99.99,tws,2013-11-13 04:03:00,
2013-11-12 23:08:00,26.1,17.2,30.26,North,360,3.5,3.5,68,-99.99,,,-99.99,tws,2013-11-13 04:08:00,
2013-11-12 23:13:00,26.4,17.4,30.26,North,0,5.3,5.3,68,-99.99,,,-99.99,tws,2013-11-13 04:13:00,
2013-11-12 23:18:00,26.3,17.2,30.26,ENE,67,9.0,9.0,68,-99.99,,,-99.99,tws,2013-11-13 04:18:00,
2013-11-12 23:23:00,26.0,16.8,30.26,North,0,6.8,6.8,67,-99.99,,,-99.99,tws,2013-11-13 04:23:00,
2013-11-12 23:28:00,25.7,16.6,30.26,North,0,5.3,5.3,68,-99.99,,,-99.99,tws,2013-11-13 04:28:00,
2013-11-12 23:33:00,25.4,16.3,30.26,North,0,8.5,8.5,68,-99.99,,,-99.99,tws,2013-11-13 04:33:00,
2013-11-12 23:38:00,25.4,16.5,30.27,NNW,337,2.9,2.9,68,-99.99,,,-99.99,tws,2013-11-13 04:38:00,
2013-11-12 23:43:00,25.2,16.6,30.26,NNW,337,3.6,3.6,69,-99.99,,,-99.99,tws,2013-11-13 04:43:00,
2013-11-12 23:48:00,25.0,16.4,30.27,North,360,3.9,3.9,69,-99.99,,,-99.99,tws,2013-11-13 04:48:00,
2013-11-12 23:53:00,25.2,16.1,30.26,NNW,337,3.9,3.9,68,-99.99,,,-99.99,tws,2013-11-13 04:53:00,
2013-11-12 23:58:00,25.4,16.4,30.26,North,0,3.5,3.5,68,-99.99,,,-99.99,tws,2013-11-13 04:58:00,